Address 0x1c3ea56c3f0dbeb5607711d736d6acac74959184 1

 
 
Txn Hash Method
Block
From
To
Value [Txn Fee]
0x9ca48c63d894bd1d0143e84ffa2bf8aafb63b6f271d3328be458dfc7ab420ca8Transfer120684682021-10-25 4:15:382 days 14 hrs ago0x1c3ea56c3f0dbeb5607711d736d6acac74959184OUT0x94acee5bdd79a86a10f2990df9ea29f45d641f380.04 BNB0.000105
0xb5455e622153c66e1520d3abe97e1c29fd9c9014a2b28105fbdec9bc9b80abdaSwap Exact Token...120388812021-10-24 3:12:083 days 15 hrs ago0x1c3ea56c3f0dbeb5607711d736d6acac74959184OUT PancakeSwap: Router v20 BNB0.0011304
0xc1542b8a32c795ad4befcd27be3c0ab2b92de072c0c147e7c042b3aaacab76deApprove120388072021-10-24 3:08:263 days 15 hrs ago0x1c3ea56c3f0dbeb5607711d736d6acac74959184OUT 0x30ea7c369b87fe261de28a1eefafe806696a738b0 BNB0.000677415
0xad0701f4ef46f6e10985d617eba5f18fb5c3ed3b61b167f9e8a0b4b732be5c97Transfer120214732021-10-23 12:37:174 days 5 hrs ago0x1c3ea56c3f0dbeb5607711d736d6acac74959184OUT0xe80008f15e91a1304324922aa787e3b415c1efa80.03 BNB0.000105
0xa338718cfb6f6d2136bdc153665a8e829f668afac75cd3a4a559ee8473a61761Transfer119954992021-10-22 14:46:235 days 3 hrs ago0x1c3ea56c3f0dbeb5607711d736d6acac74959184OUT0x27939b9892bd88f9fb78e6d65223df618e44b3c30.044 BNB0.000105
0xd8c9fd2f5e58e737063f3fad2ad434fe483e2146278b5705045d2e86b1ad4994Deposit119950092021-10-22 14:21:485 days 4 hrs ago0x1c3ea56c3f0dbeb5607711d736d6acac74959184OUT PancakeSwap: Auto CAKE Syrup Pool0 BNB0.000652885
0x865dab09f02df1ba90668e4c2d1dbafc6bf4083c0a2c4e9e3bd72dcab3696f940x7c025200119949732021-10-22 14:20:005 days 4 hrs ago0x1c3ea56c3f0dbeb5607711d736d6acac74959184OUT 1inch: Router V30 BNB0.005459895
0xfb440b2490420dc9d834aa39bd74a7a18171fcdb61a289bf50edbd46378cc1fa0x7c025200119898102021-10-22 9:59:495 days 8 hrs ago0x1c3ea56c3f0dbeb5607711d736d6acac74959184OUT 1inch: Router V30 BNB0.004253214
0x12a2921239f9b44d95f053d6a3756f27e0c67613f3243b3e7bb202ca87a199ceTransfer119891922021-10-22 9:28:555 days 9 hrs ago0x1c3ea56c3f0dbeb5607711d736d6acac74959184OUT BUSD-T Stablecoin0 BNB0.000255575
0x4de9443fc6b8d09bd65572ebc7f4db1df5b8c8d80d53a73b48c622fd8c505fb20x7c025200119891622021-10-22 9:27:255 days 9 hrs ago0x1c3ea56c3f0dbeb5607711d736d6acac74959184OUT 1inch: Router V30 BNB0.005659134
0x46502d82445d669b6e80238549ba047669c90f5b42655158476f98056220b62fSwap Exact Token...119884992021-10-22 8:54:145 days 9 hrs ago0x1c3ea56c3f0dbeb5607711d736d6acac74959184OUT PancakeSwap: Router v20 BNB0.000587705
0x35991baebb9c00e038beaca16e0db4ecd035a2a3f9cf4938426820b137e3953aApprove119884882021-10-22 8:53:415 days 9 hrs ago0x1c3ea56c3f0dbeb5607711d736d6acac74959184OUT WolfSafePoorPeople: WSPP Token0 BNB0.000222015
0x06af381bff7d07db6947ba94bcf5e816257b93e7236260a360f8486fe53aa99dTransfer119868312021-10-22 7:27:015 days 11 hrs ago0x1c3ea56c3f0dbeb5607711d736d6acac74959184OUT0xc7e505cbe9d4f4dc90da15b0c923fc1c205dc9b10.03 BNB0.000105
0x1312d2263e93df0d3051f11405f4835dff33ff1508bba9f345fa5d236bd0b5df0x7c025200119866252021-10-22 7:16:425 days 11 hrs ago0x1c3ea56c3f0dbeb5607711d736d6acac74959184OUT 1inch: Router V30 BNB0.005606598
0x9d1d5babcb7039a504b5eccd7738d876e4294430d84617310141b65081f63d09Transfer119834852021-10-22 4:24:385 days 14 hrs ago0x1c3ea56c3f0dbeb5607711d736d6acac74959184OUT BUSD-T Stablecoin0 BNB0.000255635
0x26ab5450be4d821964e649db51a3cf5560c017f5a9c059f9c96b4ed79139f9a90x7c025200119833172021-10-22 4:16:135 days 14 hrs ago0x1c3ea56c3f0dbeb5607711d736d6acac74959184OUT 1inch: Router V30 BNB0.000940375
0x804bf63a0aa77d0f22147ea6d23d2ef2b04644aed42c73102720cceb6789f7de0x7c025200119832482021-10-22 4:12:395 days 14 hrs ago0x1c3ea56c3f0dbeb5607711d736d6acac74959184OUT 1inch: Router V30 BNB0.00831408
0x4283403b52c7fea6ce281284e537496694cfb045d8ddc7b051b317c4bf9d27cdDeposit119765572021-10-21 22:30:065 days 20 hrs ago0x1c3ea56c3f0dbeb5607711d736d6acac74959184OUT PancakeSwap: Auto CAKE Syrup Pool0 BNB0.000706825
0x697dc04aaba8ba3914da5b9777543b738ee66fddd1a0cd015a148cbed096d75a0x7c025200119765002021-10-21 22:27:155 days 20 hrs ago0x1c3ea56c3f0dbeb5607711d736d6acac74959184OUT 1inch: Router V30 BNB0.002080875
0x0835c41b505ce8a3662295a4d08111953b96e4758ff26ba8fabb7a4ec05bdcbf0x7c025200119764732021-10-21 22:25:545 days 20 hrs ago0x1c3ea56c3f0dbeb5607711d736d6acac74959184OUT 1inch: Router V30 BNB0.00881634
0x03ba66927ca7b0df6ebaa2ba95d4a1d0a6dc625c1f058dcb82f7e1753dc9def4Transfer119705272021-10-21 17:28:176 days 1 hr ago0x1c3ea56c3f0dbeb5607711d736d6acac74959184OUT BUSD-T Stablecoin0 BNB0.000180575
0xd9f877e80ac90804dc7a921c506e20837d88414acd20726682a9ef68d0bfd34e0x7c025200119704422021-10-21 17:24:026 days 1 hr ago0x1c3ea56c3f0dbeb5607711d736d6acac74959184OUT 1inch: Router V30 BNB0.012794415
0x9d64435d5b130d3f7edd21355aedb13d093a0ee68a9ae1bb62b2974d3e4568f1Transfer119700012021-10-21 17:01:596 days 1 hr ago0x1c3ea56c3f0dbeb5607711d736d6acac74959184OUT0x94acee5bdd79a86a10f2990df9ea29f45d641f380.03 BNB0.000105
0x691288d70a433c7faa5c2e5fdf8336a7f88bb8b3af48296d3fcadf2781c4cdb5Approve119663272021-10-21 13:49:416 days 4 hrs ago0x1c3ea56c3f0dbeb5607711d736d6acac74959184OUT Aether: ATH Token0 BNB0.00066822
0x319d52f5ef6106aa13471554a8b6f7a48cfe0075135efc2fb1ef11e4b3edc4b40x7c025200119654252021-10-21 12:59:376 days 5 hrs ago0x1c3ea56c3f0dbeb5607711d736d6acac74959184OUT 1inch: Router V30 BNB0.000921918
[ Download CSV Export 
Latest 8 internal transactions
Parent Txn Hash Block From To Value
0x26ab5450be4d821964e649db51a3cf5560c017f5a9c059f9c96b4ed79139f9a9119833172021-10-22 4:16:135 days 14 hrs ago 0xbaf9a5d4b0052359326a6cdab54babaa3a3a96430x1c3ea56c3f0dbeb5607711d736d6acac749591840.145657693012967163 BNB
0xf6aedc8ab5c995dee20c304235e4c1fcc5eb7144c997698cde0c75237e1dfd48118981062021-10-19 3:55:448 days 14 hrs ago 0xbaf9a5d4b0052359326a6cdab54babaa3a3a96430x1c3ea56c3f0dbeb5607711d736d6acac749591840.141798856887884728 BNB
0x83ef45d8eb1dc070040647f6eea992a03d3d20b378f048bc7dd05010c8458729116121472021-10-09 3:35:4718 days 14 hrs ago PancakeSwap: Router v20x1c3ea56c3f0dbeb5607711d736d6acac749591840.000047191123560388 BNB
0xe3312f892bda317533fd5766c6c3bfc5516696617f6c11ab62e03ed743e3eec4115808462021-10-08 1:25:3619 days 17 hrs ago PancakeSwap: Router v20x1c3ea56c3f0dbeb5607711d736d6acac749591840.056637811009284426 BNB
0xd1ce79746ab3c7a4da9b276677932e7d37e82d49562b41609c88456d6a9c8671115026802021-10-05 8:12:3322 days 10 hrs ago 0xbaf9a5d4b0052359326a6cdab54babaa3a3a96430x1c3ea56c3f0dbeb5607711d736d6acac749591840.164400669068432535 BNB
0xfa90cd17b4e2c0355e60db792fcd46493f3ce4687335579d3c3d835c5cad14ae113091222021-09-28 13:38:0329 days 4 hrs ago 0xbaf9a5d4b0052359326a6cdab54babaa3a3a96430x1c3ea56c3f0dbeb5607711d736d6acac749591840.045571309778139461 BNB
0xc49c13097a7d8635e58411ad33ed4e824eff8629d519d0580fc820eb48788ef1102898132021-08-23 21:02:3264 days 21 hrs ago 0xc1e16013a158d57a60d6aa5bb3108722b0ac6df50x1c3ea56c3f0dbeb5607711d736d6acac749591840.100311008403830999 BNB
0xc960c883f672c6e96ba7c21c3152325f19ccb06626d2d8716d356cb6b7d0b15a100993502021-08-17 5:23:3771 days 13 hrs ago PancakeSwap: Router v20x1c3ea56c3f0dbeb5607711d736d6acac749591840.1 BNB
[ Download CSV Export 
Loading

Contract Name:
0 BNB

Compiler Version
0

Optimization Enabled:
0 BNB

Other Settings:
-NA-
Block Transaction Gas Used Reward
Age Block Fee Address BC Fee Address Voting Power Jailed Incoming
Block Uncle Number Difficulty Gas Used Reward
Loading
Loading
Make sure to use the "Vote Down" button for any spammy posts, and the "Vote Up" for interesting conversations.